sensor_id;sensor_type;location;lat;lon;timestamp;pressure;altitude;pressure_sealevel;temperature;humidity
60089;BME280;45961;53.574;55.878;2023-05-09T00:00:13;100843.13;;;2.27;56.79
60089;BME280;45961;53.574;55.878;2023-05-09T00:01:16;100837.53;;;2.18;56.88
60089;BME280;45961;53.574;55.878;2023-05-09T00:02:17;100847.66;;;2.16;57.00
60089;BME280;45961;53.574;55.878;2023-05-09T00:03:18;100844.41;;;2.19;57.01
60089;BME280;45961;53.574;55.878;2023-05-09T00:04:19;100845.69;;;2.27;56.79
60089;BME280;45961;53.574;55.878;2023-05-09T00:05:20;100859.56;;;2.32;56.68
60089;BME280;45961;53.574;55.878;2023-05-09T00:06:21;100848.69;;;2.20;56.76
60089;BME280;45961;53.574;55.878;2023-05-09T00:07:22;100853.28;;;2.26;56.78
60089;BME280;45961;53.574;55.878;2023-05-09T00:08:23;100851.09;;;2.17;56.83
60089;BME280;45961;53.574;55.878;2023-05-09T00:09:24;100845.97;;;2.17;57.13
60089;BME280;45961;53.574;55.878;2023-05-09T00:10:26;100840.00;;;2.16;57.03
60089;BME280;45961;53.574;55.878;2023-05-09T00:11:27;100841.19;;;2.23;56.81
60089;BME280;45961;53.574;55.878;2023-05-09T00:12:28;100852.47;;;2.10;57.04
60089;BME280;45961;53.574;55.878;2023-05-09T00:13:29;100841.13;;;2.21;57.00
60089;BME280;45961;53.574;55.878;2023-05-09T00:14:30;100846.47;;;2.26;56.75
60089;BME280;45961;53.574;55.878;2023-05-09T00:15:33;100845.59;;;2.26;56.60
60089;BME280;45961;53.574;55.878;2023-05-09T00:16:34;100849.03;;;2.26;56.71
60089;BME280;45961;53.574;55.878;2023-05-09T00:17:36;100849.81;;;2.25;56.67
60089;BME280;45961;53.574;55.878;2023-05-09T00:18:38;100843.81;;;2.25;56.75
60089;BME280;45961;53.574;55.878;2023-05-09T00:19:42;100844.00;;;2.28;56.71
60089;BME280;45961;53.574;55.878;2023-05-09T00:20:43;100840.63;;;2.12;56.88
60089;BME280;45961;53.574;55.878;2023-05-09T00:21:45;100849.44;;;2.17;56.97
60089;BME280;45961;53.574;55.878;2023-05-09T00:22:45;100849.16;;;2.13;56.96
60089;BME280;45961;53.574;55.878;2023-05-09T00:23:47;100846.06;;;2.18;57.07
60089;BME280;45961;53.574;55.878;2023-05-09T00:24:48;100839.59;;;2.25;57.12
60089;BME280;45961;53.574;55.878;2023-05-09T00:25:49;100838.25;;;2.15;57.04
60089;BME280;45961;53.574;55.878;2023-05-09T00:26:50;100850.53;;;2.06;57.18
60089;BME280;45961;53.574;55.878;2023-05-09T00:27:52;100856.53;;;2.07;57.35
60089;BME280;45961;53.574;55.878;2023-05-09T00:28:53;100848.78;;;2.05;57.55
60089;BME280;45961;53.574;55.878;2023-05-09T00:29:54;100848.06;;;2.08;57.45
60089;BME280;45961;53.574;55.878;2023-05-09T00:30:55;100834.59;;;2.10;57.24
60089;BME280;45961;53.574;55.878;2023-05-09T00:31:56;100838.06;;;2.12;57.13
60089;BME280;45961;53.574;55.878;2023-05-09T00:32:57;100842.25;;;2.10;57.20
60089;BME280;45961;53.574;55.878;2023-05-09T00:33:58;100840.00;;;2.16;57.16
60089;BME280;45961;53.574;55.878;2023-05-09T00:34:59;100851.34;;;2.21;56.96
60089;BME280;45961;53.574;55.878;2023-05-09T00:36:00;100844.88;;;2.12;57.00
60089;BME280;45961;53.574;55.878;2023-05-09T00:37:02;100848.53;;;2.17;57.20
60089;BME280;45961;53.574;55.878;2023-05-09T00:38:03;100851.34;;;2.21;57.02
60089;BME280;45961;53.574;55.878;2023-05-09T00:39:04;100850.38;;;2.19;56.96
60089;BME280;45961;53.574;55.878;2023-05-09T00:40:05;100844.63;;;2.23;56.92
60089;BME280;45961;53.574;55.878;2023-05-09T00:41:07;100842.88;;;2.22;56.77
60089;BME280;45961;53.574;55.878;2023-05-09T00:42:08;100847.75;;;2.18;56.85
60089;BME280;45961;53.574;55.878;2023-05-09T00:43:09;100851.88;;;2.32;56.67
60089;BME280;45961;53.574;55.878;2023-05-09T00:44:10;100851.25;;;2.36;56.70
60089;BME280;45961;53.574;55.878;2023-05-09T00:45:11;100855.41;;;2.34;56.70
60089;BME280;45961;53.574;55.878;2023-05-09T00:46:12;100855.66;;;2.22;56.84
60089;BME280;45961;53.574;55.878;2023-05-09T00:47:13;100854.44;;;2.32;56.84
60089;BME280;45961;53.574;55.878;2023-05-09T00:48:15;100851.88;;;2.16;57.24
60089;BME280;45961;53.574;55.878;2023-05-09T00:49:16;100849.91;;;2.27;56.94
60089;BME280;45961;53.574;55.878;2023-05-09T00:50:17;100849.56;;;2.20;57.07
60089;BME280;45961;53.574;55.878;2023-05-09T00:51:19;100856.69;;;2.26;56.96
60089;BME280;45961;53.574;55.878;2023-05-09T00:52:20;100844.00;;;2.28;56.94
60089;BME280;45961;53.574;55.878;2023-05-09T00:53:23;100850.06;;;2.30;56.79
60089;BME280;45961;53.574;55.878;2023-05-09T00:54:25;100852.38;;;2.25;56.93
60089;BME280;45961;53.574;55.878;2023-05-09T00:55:26;100856.59;;;2.25;57.15
60089;BME280;45961;53.574;55.878;2023-05-09T00:56:27;100860.28;;;2.30;56.88
60089;BME280;45961;53.574;55.878;2023-05-09T00:57:28;100859.72;;;2.35;56.76
60089;BME280;45961;53.574;55.878;2023-05-09T00:58:30;100855.66;;;2.22;56.78
60089;BME280;45961;53.574;55.878;2023-05-09T00:59:31;100849.19;;;2.29;56.65
60089;BME280;45961;53.574;55.878;2023-05-09T01:00:32;100854.53;;;2.34;56.83
60089;BME280;45961;53.574;55.878;2023-05-09T01:01:33;100859.78;;;2.20;57.14
60089;BME280;45961;53.574;55.878;2023-05-09T01:02:34;100865.63;;;2.18;57.30
60089;BME280;45961;53.574;55.878;2023-05-09T01:03:37;100849.56;;;2.20;57.14
60089;BME280;45961;53.574;55.878;2023-05-09T01:04:39;100857.63;;;2.12;57.09
60089;BME280;45961;53.574;55.878;2023-05-09T01:05:54;100857.72;;;2.13;57.21
60089;BME280;45961;53.574;55.878;2023-05-09T01:10:14;100861.47;;;2.20;57.32
60089;BME280;45961;53.574;55.878;2023-05-09T01:11:30;100856.75;;;2.11;57.05
60089;BME280;45961;53.574;55.878;2023-05-09T01:15:48;100866.03;;;2.26;57.34
60089;BME280;45961;53.574;55.878;2023-05-09T01:17:01;100864.03;;;2.20;57.29
60089;BME280;45961;53.574;55.878;2023-05-09T01:18:15;100864.53;;;2.29;56.98
60089;BME280;45961;53.574;55.878;2023-05-09T01:19:41;100871.22;;;2.27;57.30
60089;BME280;45961;53.574;55.878;2023-05-09T01:21:02;100871.22;;;2.27;57.09
60089;BME280;45961;53.574;55.878;2023-05-09T01:22:06;100875.28;;;2.23;57.23
60089;BME280;45961;53.574;55.878;2023-05-09T01:26:00;100877.19;;;2.44;56.56
60089;BME280;45961;53.574;55.878;2023-05-09T01:27:42;100861.41;;;2.51;56.78
60089;BME280;45961;53.574;55.878;2023-05-09T01:30:14;100826.81;;;2.25;56.47
60089;BME280;45961;53.574;55.878;2023-05-09T01:31:16;100868.78;;;2.79;56.09
60089;BME280;45961;53.574;55.878;2023-05-09T01:32:23;100877.34;;;2.80;55.96
60089;BME280;45961;53.574;55.878;2023-05-09T01:33:25;100872.56;;;2.86;55.94
60089;BME280;45961;53.574;55.878;2023-05-09T01:34:29;100878.03;;;2.93;55.71
60089;BME280;45961;53.574;55.878;2023-05-09T01:35:35;100863.44;;;2.91;55.55
60089;BME280;45961;53.574;55.878;2023-05-09T01:36:39;100879.00;;;2.95;55.67
60089;BME280;45961;53.574;55.878;2023-05-09T01:37:43;100870.22;;;2.90;55.66
60089;BME280;45961;53.574;55.878;2023-05-09T01:38:49;100872.00;;;3.09;55.66
60089;BME280;45961;53.574;55.878;2023-05-09T01:39:52;100853.09;;;3.06;55.29
60089;BME280;45961;53.574;55.878;2023-05-09T01:40:56;100868.56;;;3.09;55.13
60089;BME280;45961;53.574;55.878;2023-05-09T01:42:03;100873.56;;;3.41;54.54
60089;BME280;45961;53.574;55.878;2023-05-09T01:43:08;100861.00;;;4.38;52.80
60089;BME280;45961;53.574;55.878;2023-05-09T01:44:12;100859.13;;;5.36;50.38
60089;BME280;45961;53.574;55.878;2023-05-09T01:45:14;100853.16;;;5.80;48.23
60089;BME280;45961;53.574;55.878;2023-05-09T01:46:18;100856.25;;;6.16;47.62
60089;BME280;45961;53.574;55.878;2023-05-09T01:47:20;100856.31;;;6.66;46.93
60089;BME280;45961;53.574;55.878;2023-05-09T01:48:23;100847.38;;;7.58;45.39
60089;BME280;45961;53.574;55.878;2023-05-09T01:49:30;100855.22;;;7.90;43.27
60089;BME280;45961;53.574;55.878;2023-05-09T01:50:33;100828.06;;;8.01;43.28
60089;BME280;45961;53.574;55.878;2023-05-09T01:51:36;100858.19;;;8.64;42.32
60089;BME280;45961;53.574;55.878;2023-05-09T01:52:41;100854.78;;;8.97;41.46
60089;BME280;45961;53.574;55.878;2023-05-09T01:53:44;100858.41;;;8.40;41.87
60089;BME280;45961;53.574;55.878;2023-05-09T01:54:49;100863.59;;;7.29;43.52
60089;BME280;45961;53.574;55.878;2023-05-09T01:55:53;100864.47;;;7.29;44.61
60089;BME280;45961;53.574;55.878;2023-05-09T01:56:55;100866.03;;;6.49;45.33
60089;BME280;45961;53.574;55.878;2023-05-09T01:57:58;100868.75;;;6.54;46.27
60089;BME280;45961;53.574;55.878;2023-05-09T01:59:01;100870.41;;;6.28;46.52
60089;BME280;45961;53.574;55.878;2023-05-09T02:00:04;100866.00;;;6.25;46.63
60089;BME280;45961;53.574;55.878;2023-05-09T02:01:14;100879.28;;;5.91;46.99
60089;BME280;45961;53.574;55.878;2023-05-09T02:02:16;100869.41;;;6.02;47.16
60089;BME280;45961;53.574;55.878;2023-05-09T02:03:17;100860.13;;;6.05;47.11
60089;BME280;45961;53.574;55.878;2023-05-09T02:04:20;100862.19;;;6.38;46.46
60089;BME280;45961;53.574;55.878;2023-05-09T02:05:25;100853.25;;;6.76;45.88
60089;BME280;45961;53.574;55.878;2023-05-09T02:06:27;100866.56;;;6.40;45.98
60089;BME280;45961;53.574;55.878;2023-05-09T02:07:31;100855.91;;;6.79;45.93
60089;BME280;45961;53.574;55.878;2023-05-09T02:08:33;100853.56;;;5.91;46.29
60089;BME280;45961;53.574;55.878;2023-05-09T02:09:35;100859.25;;;6.27;47.39
60089;BME280;45961;53.574;55.878;2023-05-09T02:10:36;100866.41;;;5.91;47.29
60089;BME280;45961;53.574;55.878;2023-05-09T02:11:39;100861.91;;;5.85;47.64
60089;BME280;45961;53.574;55.878;2023-05-09T02:12:40;100862.66;;;5.83;47.93
60089;BME280;45961;53.574;55.878;2023-05-09T02:13:41;100861.16;;;5.88;47.84
60089;BME280;45961;53.574;55.878;2023-05-09T02:14:42;100866.75;;;5.78;47.89
60089;BME280;45961;53.574;55.878;2023-05-09T02:15:43;100870.94;;;5.97;47.96
60089;BME280;45961;53.574;55.878;2023-05-09T02:16:45;100866.25;;;6.31;47.44
60089;BME280;45961;53.574;55.878;2023-05-09T02:17:46;100861.72;;;6.48;46.21
60089;BME280;45961;53.574;55.878;2023-05-09T02:18:49;100868.84;;;6.09;47.02
60089;BME280;45961;53.574;55.878;2023-05-09T02:19:49;100870.03;;;6.18;47.07
60089;BME280;45961;53.574;55.878;2023-05-09T02:21:11;100869.72;;;6.81;46.16
60089;BME280;45961;53.574;55.878;2023-05-09T02:22:12;100876.72;;;7.11;45.61
60089;BME280;45961;53.574;55.878;2023-05-09T02:23:13;100881.72;;;6.81;45.18
60089;BME280;45961;53.574;55.878;2023-05-09T02:24:14;100875.81;;;6.35;46.42
60089;BME280;45961;53.574;55.878;2023-05-09T02:25:15;100872.97;;;6.76;46.03
60089;BME280;45961;53.574;55.878;2023-05-09T02:26:19;100872.25;;;6.80;45.81
60089;BME280;45961;53.574;55.878;2023-05-09T02:27:20;100872.06;;;6.75;45.95
60089;BME280;45961;53.574;55.878;2023-05-09T02:28:22;100872.25;;;7.05;45.74
60089;BME280;45961;53.574;55.878;2023-05-09T02:29:29;100865.66;;;7.13;45.14
60089;BME280;45961;53.574;55.878;2023-05-09T02:30:36;100862.94;;;7.09;44.86
60089;BME280;45961;53.574;55.878;2023-05-09T02:31:39;100869.22;;;7.17;44.73
60089;BME280;45961;53.574;55.878;2023-05-09T02:32:44;100876.78;;;7.38;44.57
60089;BME280;45961;53.574;55.878;2023-05-09T02:33:46;100865.44;;;7.07;45.11
60089;BME280;45961;53.574;55.878;2023-05-09T02:34:50;100868.66;;;7.26;44.84
60089;BME280;45961;53.574;55.878;2023-05-09T02:35:52;100863.31;;;7.47;44.79
60089;BME280;45961;53.574;55.878;2023-05-09T02:36:54;100870.66;;;7.09;44.85
60089;BME280;45961;53.574;55.878;2023-05-09T02:37:56;100869.38;;;6.96;45.12
60089;BME280;45961;53.574;55.878;2023-05-09T02:38:59;100872.06;;;6.75;45.82
60089;BME280;45961;53.574;55.878;2023-05-09T02:40:02;100873.50;;;6.67;45.74
60089;BME280;45961;53.574;55.878;2023-05-09T02:41:05;100875.66;;;7.04;45.53
60089;BME280;45961;53.574;55.878;2023-05-09T02:42:09;100875.44;;;6.98;45.63
60089;BME280;45961;53.574;55.878;2023-05-09T02:43:10;100866.59;;;6.90;45.76
60089;BME280;45961;53.574;55.878;2023-05-09T02:44:11;100876.44;;;7.02;45.61
60089;BME280;45961;53.574;55.878;2023-05-09T02:45:12;100870.75;;;6.86;45.62
60089;BME280;45961;53.574;55.878;2023-05-09T02:46:14;100864.19;;;7.20;45.67
60089;BME280;45961;53.574;55.878;2023-05-09T02:47:14;100870.75;;;7.37;44.90
60089;BME280;45961;53.574;55.878;2023-05-09T02:48:15;100867.97;;;7.06;44.98
60089;BME280;45961;53.574;55.878;2023-05-09T02:49:16;100874.88;;;7.07;45.47
60089;BME280;45961;53.574;55.878;2023-05-09T02:50:17;100869.56;;;7.55;44.74
60089;BME280;45961;53.574;55.878;2023-05-09T02:51:18;100880.75;;;7.28;44.95
60089;BME280;45961;53.574;55.878;2023-05-09T02:52:19;100871.38;;;7.57;45.13
60089;BME280;45961;53.574;55.878;2023-05-09T02:53:21;100857.66;;;7.31;45.00
60089;BME280;45961;53.574;55.878;2023-05-09T02:54:22;100875.94;;;7.39;45.03
60089;BME280;45961;53.574;55.878;2023-05-09T02:55:23;100878.72;;;7.72;44.44
60089;BME280;45961;53.574;55.878;2023-05-09T02:56:24;100873.66;;;7.21;44.32
60089;BME280;45961;53.574;55.878;2023-05-09T02:57:25;100874.94;;;7.34;44.89
60089;BME280;45961;53.574;55.878;2023-05-09T02:58:26;100877.47;;;7.32;44.70
60089;BME280;45961;53.574;55.878;2023-05-09T02:59:27;100875.00;;;6.84;45.62
60089;BME280;45961;53.574;55.878;2023-05-09T03:00:29;100875.28;;;7.19;45.67
60089;BME280;45961;53.574;55.878;2023-05-09T03:01:30;100881.06;;;7.37;45.11
60089;BME280;45961;53.574;55.878;2023-05-09T03:02:31;100881.41;;;7.23;45.58
60089;BME280;45961;53.574;55.878;2023-05-09T03:03:32;100887.66;;;7.29;44.99
60089;BME280;45961;53.574;55.878;2023-05-09T03:04:36;100878.34;;;7.33;44.94
60089;BME280;45961;53.574;55.878;2023-05-09T03:05:37;100883.91;;;7.47;44.62
60089;BME280;45961;53.574;55.878;2023-05-09T03:06:38;100881.66;;;7.56;44.79
60089;BME280;45961;53.574;55.878;2023-05-09T03:07:39;100887.59;;;7.02;45.23
60089;BME280;45961;53.574;55.878;2023-05-09T03:08:40;100888.63;;;7.33;45.23
60089;BME280;45961;53.574;55.878;2023-05-09T03:09:42;100883.31;;;7.03;45.21
60089;BME280;45961;53.574;55.878;2023-05-09T03:10:43;100883.81;;;7.43;44.98
60089;BME280;45961;53.574;55.878;2023-05-09T03:11:44;100889.06;;;7.47;44.58
60089;BME280;45961;53.574;55.878;2023-05-09T03:12:45;100878.25;;;7.57;44.51
60089;BME280;45961;53.574;55.878;2023-05-09T03:13:46;100875.69;;;7.85;44.41
60089;BME280;45961;53.574;55.878;2023-05-09T03:14:47;100882.25;;;7.76;44.01
60089;BME280;45961;53.574;55.878;2023-05-09T03:15:48;100884.09;;;7.80;43.67
60089;BME280;45961;53.574;55.878;2023-05-09T03:16:49;100882.00;;;7.95;43.92
60089;BME280;45961;53.574;55.878;2023-05-09T03:18:00;100885.59;;;8.00;43.73
60089;BME280;45961;53.574;55.878;2023-05-09T03:19:02;100887.28;;;8.00;43.68
60089;BME280;45961;53.574;55.878;2023-05-09T03:20:03;100888.09;;;7.70;43.99
60089;BME280;45961;53.574;55.878;2023-05-09T03:21:05;100888.63;;;8.15;43.71
60089;BME280;45961;53.574;55.878;2023-05-09T03:22:06;100883.00;;;8.59;43.12
60089;BME280;45961;53.574;55.878;2023-05-09T03:23:12;100893.63;;;8.38;42.90
60089;BME280;45961;53.574;55.878;2023-05-09T03:24:13;100894.34;;;8.35;43.61
60089;BME280;45961;53.574;55.878;2023-05-09T03:25:14;100882.22;;;8.03;44.07
60089;BME280;45961;53.574;55.878;2023-05-09T03:26:16;100891.28;;;7.90;43.92
60089;BME280;45961;53.574;55.878;2023-05-09T03:27:18;100886.84;;;8.42;43.14
60089;BME280;45961;53.574;55.878;2023-05-09T03:28:19;100892.50;;;8.60;43.20
60089;BME280;45961;53.574;55.878;2023-05-09T03:29:20;100877.56;;;8.20;43.57
60089;BME280;45961;53.574;55.878;2023-05-09T03:30:21;100892.84;;;8.72;43.12
60089;BME280;45961;53.574;55.878;2023-05-09T03:31:23;100885.16;;;8.74;42.55
60089;BME280;45961;53.574;55.878;2023-05-09T03:32:26;100889.97;;;8.61;42.97
60089;BME280;45961;53.574;55.878;2023-05-09T03:33:27;100884.88;;;8.96;42.76
60089;BME280;45961;53.574;55.878;2023-05-09T03:34:29;100880.84;;;9.06;42.60
60089;BME280;45961;53.574;55.878;2023-05-09T03:35:31;100880.84;;;9.06;41.76
60089;BME280;45961;53.574;55.878;2023-05-09T03:36:32;100884.28;;;8.73;42.71
60089;BME280;45961;53.574;55.878;2023-05-09T03:37:34;100885.31;;;8.80;42.02
60089;BME280;45961;53.574;55.878;2023-05-09T03:38:35;100892.59;;;8.95;41.68
60089;BME280;45961;53.574;55.878;2023-05-09T03:39:36;100883.66;;;9.15;41.50
60089;BME280;45961;53.574;55.878;2023-05-09T03:40:37;100883.31;;;9.36;41.18
60089;BME280;45961;53.574;55.878;2023-05-09T03:41:41;100888.91;;;9.53;40.90
60089;BME280;45961;53.574;55.878;2023-05-09T03:42:43;100884.59;;;9.53;40.62
60089;BME280;45961;53.574;55.878;2023-05-09T03:43:44;100888.56;;;9.40;40.67
60089;BME280;45961;53.574;55.878;2023-05-09T03:44:46;100891.94;;;9.03;41.20
60089;BME280;45961;53.574;55.878;2023-05-09T03:45:47;100877.53;;;9.46;40.91
60089;BME280;45961;53.574;55.878;2023-05-09T03:46:49;100897.84;;;8.98;40.90
60089;BME280;45961;53.574;55.878;2023-05-09T03:47:50;100895.09;;;8.92;41.40
60089;BME280;45961;53.574;55.878;2023-05-09T03:48:51;100896.00;;;8.94;41.70
60089;BME280;45961;53.574;55.878;2023-05-09T03:49:52;100891.31;;;9.12;41.31
60089;BME280;45961;53.574;55.878;2023-05-09T03:50:55;100891.56;;;9.21;41.10
60089;BME280;45961;53.574;55.878;2023-05-09T03:52:00;100885.47;;;9.54;40.50
60089;BME280;45961;53.574;55.878;2023-05-09T03:53:03;100888.34;;;9.31;40.53
60089;BME280;45961;53.574;55.878;2023-05-09T03:54:04;100886.69;;;9.33;40.60
60089;BME280;45961;53.574;55.878;2023-05-09T03:55:06;100892.25;;;9.14;40.72
60089;BME280;45961;53.574;55.878;2023-05-09T03:56:09;100893.44;;;9.28;41.01
60089;BME280;45961;53.574;55.878;2023-05-09T03:57:18;100892.59;;;8.63;41.85
60089;BME280;45961;53.574;55.878;2023-05-09T03:58:22;100887.06;;;9.14;41.43
60089;BME280;45961;53.574;55.878;2023-05-09T03:59:23;100894.19;;;9.24;40.73
60089;BME280;45961;53.574;55.878;2023-05-09T04:00:24;100890.84;;;9.63;40.65
60089;BME280;45961;53.574;55.878;2023-05-09T04:01:37;100898.59;;;9.61;40.57
60089;BME280;45961;53.574;55.878;2023-05-09T04:02:40;100890.00;;;9.28;40.71
60089;BME280;45961;53.574;55.878;2023-05-09T04:03:44;100887.75;;;9.42;40.95
60089;BME280;45961;53.574;55.878;2023-05-09T04:05:36;100885.13;;;9.76;40.39
60089;BME280;45961;53.574;55.878;2023-05-09T04:06:39;100886.38;;;9.56;39.95
60089;BME280;45961;53.574;55.878;2023-05-09T04:07:42;100892.25;;;9.49;39.88
60089;BME280;45961;53.574;55.878;2023-05-09T04:08:43;100890.81;;;9.61;40.19
60089;BME280;45961;53.574;55.878;2023-05-09T04:09:45;100904.28;;;9.13;40.08
60089;BME280;45961;53.574;55.878;2023-05-09T04:10:46;100888.63;;;9.42;40.13
60089;BME280;45961;53.574;55.878;2023-05-09T04:11:47;100898.00;;;9.38;40.13
60089;BME280;45961;53.574;55.878;2023-05-09T04:12:49;100894.56;;;9.74;40.03
60089;BME280;45961;53.574;55.878;2023-05-09T04:13:51;100893.53;;;9.68;39.51
60089;BME280;45961;53.574;55.878;2023-05-09T04:15:05;100889.03;;;9.59;40.09
60089;BME280;45961;53.574;55.878;2023-05-09T04:16:08;100897.09;;;9.73;39.51
60089;BME280;45961;53.574;55.878;2023-05-09T04:17:09;100884.41;;;9.46;39.49
60089;BME280;45961;53.574;55.878;2023-05-09T04:18:10;100882.59;;;9.78;39.66
60089;BME280;45961;53.574;55.878;2023-05-09T04:19:11;100886.31;;;9.89;39.55
60089;BME280;45961;53.574;55.878;2023-05-09T04:20:12;100881.75;;;10.18;39.52
60089;BME280;45961;53.574;55.878;2023-05-09T04:21:14;100884.81;;;10.40;39.22
60089;BME280;45961;53.574;55.878;2023-05-09T04:22:16;100884.56;;;10.27;38.98
60089;BME280;45961;53.574;55.878;2023-05-09T04:23:17;100895.03;;;9.94;38.95
60089;BME280;45961;53.574;55.878;2023-05-09T04:24:18;100886.31;;;9.89;39.37
60089;BME280;45961;53.574;55.878;2023-05-09T04:25:22;100883.06;;;10.01;39.39
60089;BME280;45961;53.574;55.878;2023-05-09T04:26:23;100888.44;;;10.08;39.16
60089;BME280;45961;53.574;55.878;2023-05-09T04:27:28;100884.63;;;10.30;39.20
60089;BME280;45961;53.574;55.878;2023-05-09T04:28:29;100885.50;;;10.31;38.81
60089;BME280;45961;53.574;55.878;2023-05-09T04:29:31;100890.38;;;10.17;38.54
60089;BME280;45961;53.574;55.878;2023-05-09T04:30:34;100887.69;;;10.14;39.08
60089;BME280;45961;53.574;55.878;2023-05-09T04:31:36;100883.03;;;9.98;38.98
60089;BME280;45961;53.574;55.878;2023-05-09T04:32:42;100897.06;;;9.70;39.15
60089;BME280;45961;53.574;55.878;2023-05-09T04:33:52;100873.59;;;10.00;39.30
60089;BME280;45961;53.574;55.878;2023-05-09T04:34:53;100884.19;;;10.12;39.24
60089;BME280;45961;53.574;55.878;2023-05-09T04:35:58;100884.25;;;10.13;39.00
60089;BME280;45961;53.574;55.878;2023-05-09T04:36:59;100883.94;;;10.39;38.95
60089;BME280;45961;53.574;55.878;2023-05-09T04:38:00;100881.22;;;10.33;38.87
60089;BME280;45961;53.574;55.878;2023-05-09T04:39:01;100881.50;;;10.06;38.64
60089;BME280;45961;53.574;55.878;2023-05-09T04:40:04;100876.50;;;10.13;39.23
60089;BME280;45961;53.574;55.878;2023-05-09T04:41:13;100879.09;;;9.76;39.10
60089;BME280;45961;53.574;55.878;2023-05-09T04:42:15;100879.16;;;10.18;39.33
60089;BME280;45961;53.574;55.878;2023-05-09T04:43:16;100877.59;;;10.67;38.73
60089;BME280;45961;53.574;55.878;2023-05-09T04:44:17;100878.13;;;10.10;39.14
60089;BME280;45961;53.574;55.878;2023-05-09T04:45:18;100889.34;;;10.50;38.67
60089;BME280;45961;53.574;55.878;2023-05-09T04:46:19;100884.34;;;10.18;39.28
60089;BME280;45961;53.574;55.878;2023-05-09T04:47:21;100885.22;;;10.19;39.06
60089;BME280;45961;53.574;55.878;2023-05-09T04:48:22;100882.56;;;10.16;38.84
60089;BME280;45961;53.574;55.878;2023-05-09T04:49:23;100881.50;;;10.06;38.65
60089;BME280;45961;53.574;55.878;2023-05-09T04:50:25;100881.34;;;10.37;38.43
60089;BME280;45961;53.574;55.878;2023-05-09T04:51:26;100879.41;;;10.71;38.38
60089;BME280;45961;53.574;55.878;2023-05-09T04:52:27;100880.75;;;10.52;38.13
60089;BME280;45961;53.574;55.878;2023-05-09T04:53:28;100882.28;;;10.43;38.49
60089;BME280;45961;53.574;55.878;2023-05-09T04:54:30;100882.38;;;10.47;38.70
60089;BME280;45961;53.574;55.878;2023-05-09T04:55:31;100885.34;;;10.66;38.36
60089;BME280;45961;53.574;55.878;2023-05-09T04:56:32;100875.47;;;10.92;38.13
60089;BME280;45961;53.574;55.878;2023-05-09T04:57:34;100886.59;;;10.86;37.98
60089;BME280;45961;53.574;55.878;2023-05-09T04:58:38;100875.84;;;10.66;38.02
60089;BME280;45961;53.574;55.878;2023-05-09T04:59:42;100883.00;;;10.79;37.65
60089;BME280;45961;53.574;55.878;2023-05-09T05:00:46;100883.53;;;10.61;37.67
60089;BME280;45961;53.574;55.878;2023-05-09T05:01:48;100882.78;;;10.25;38.09
60089;BME280;45961;53.574;55.878;2023-05-09T05:02:49;100891.16;;;10.14;38.25
60089;BME280;45961;53.574;55.878;2023-05-09T05:03:51;100876.72;;;10.67;37.75
60089;BME280;45961;53.574;55.878;2023-05-09T05:04:52;100879.41;;;10.71;37.58
60089;BME280;45961;53.574;55.878;2023-05-09T05:05:53;100869.09;;;10.74;37.33
60089;BME280;45961;53.574;55.878;2023-05-09T05:06:54;100877.25;;;10.96;37.00
60089;BME280;45961;53.574;55.878;2023-05-09T05:07:55;100887.22;;;10.74;37.21
60089;BME280;45961;53.574;55.878;2023-05-09T05:09:01;100877.72;;;10.29;37.94
60089;BME280;45961;53.574;55.878;2023-05-09T05:10:02;100874.38;;;10.80;37.59
60089;BME280;45961;53.574;55.878;2023-05-09T05:11:04;100878.41;;;10.65;37.89
60089;BME280;45961;53.574;55.878;2023-05-09T05:12:06;100881.25;;;10.78;37.78
60089;BME280;45961;53.574;55.878;2023-05-09T05:13:09;100873.16;;;11.07;36.98
60089;BME280;45961;53.574;55.878;2023-05-09T05:14:14;100872.63;;;11.28;37.04
60089;BME280;45961;53.574;55.878;2023-05-09T05:15:15;100872.06;;;11.46;37.07
60089;BME280;45961;53.574;55.878;2023-05-09T05:16:20;100879.59;;;11.30;37.21
60089;BME280;45961;53.574;55.878;2023-05-09T05:17:21;100878.59;;;10.74;37.13
60089;BME280;45961;53.574;55.878;2023-05-09T05:18:24;100883.09;;;10.84;37.76
60089;BME280;45961;53.574;55.878;2023-05-09T05:19:25;100881.00;;;11.11;37.29
60089;BME280;45961;53.574;55.878;2023-05-09T05:20:26;100883.78;;;11.22;36.90
60089;BME280;45961;53.574;55.878;2023-05-09T05:21:27;100885.03;;;10.97;36.46
60089;BME280;45961;53.574;55.878;2023-05-09T05:22:35;100884.06;;;11.39;36.27
60089;BME280;45961;53.574;55.878;2023-05-09T05:23:36;100892.78;;;10.94;35.59
60089;BME280;45961;53.574;55.878;2023-05-09T05:24:37;100894.16;;;11.24;36.20
60089;BME280;45961;53.574;55.878;2023-05-09T05:25:38;100891.09;;;11.48;35.85
60089;BME280;45961;53.574;55.878;2023-05-09T05:26:40;100893.28;;;11.76;35.51
60089;BME280;45961;53.574;55.878;2023-05-09T05:27:44;100891.97;;;11.48;35.54
60089;BME280;45961;53.574;55.878;2023-05-09T05:28:46;100891.28;;;11.60;35.71
60089;BME280;45961;53.574;55.878;2023-05-09T05:29:48;100881.78;;;11.59;35.11
60089;BME280;45961;53.574;55.878;2023-05-09T05:30:49;100885.81;;;11.42;35.34
60089;BME280;45961;53.574;55.878;2023-05-09T05:31:50;100881.09;;;11.72;35.31
60089;BME280;45961;53.574;55.878;2023-05-09T05:32:51;100873.59;;;11.86;35.16
60089;BME280;45961;53.574;55.878;2023-05-09T05:33:54;100875.59;;;12.08;35.33
60089;BME280;45961;53.574;55.878;2023-05-09T05:34:55;100883.66;;;11.69;35.50
60089;BME280;45961;53.574;55.878;2023-05-09T05:35:57;100883.97;;;11.89;35.48
60089;BME280;45961;53.574;55.878;2023-05-09T05:36:58;100881.81;;;12.21;35.50
60089;BME280;45961;53.574;55.878;2023-05-09T05:37:59;100881.91;;;12.27;35.48